Time,TemperatureF,DewpointF,PressureIn,WindDirection,WindDirectionDegrees,WindSpeedMPH,WindSpeedGustMPH,Humidity,HourlyPrecipIn,Conditions,Clouds,dailyrainin,SoftwareType,DateUTC
2014-12-22 00:02:00,40.4,39.1,30.10,SSW,202,0.0,0.0,95,0.00,,---,0.00,VWS V14.00,2014-12-22 05:02:00,
2014-12-22 00:07:00,40.4,39.1,30.10,SSW,202,0.0,0.0,95,0.00,,---,0.00,VWS V14.00,2014-12-22 05:07:00,
2014-12-22 00:12:00,40.4,39.1,30.10,SSW,202,0.0,0.0,95,0.00,,---,0.00,VWS V14.00,2014-12-22 05:12:00,
2014-12-22 00:17:00,40.4,39.1,30.10,SSW,202,0.0,0.0,95,0.00,,---,0.00,VWS V14.00,2014-12-22 05:17:00,
2014-12-22 00:22:00,40.2,38.9,30.10,SSW,202,0.0,0.0,95,0.00,,---,0.00,VWS V14.00,2014-12-22 05:22:00,
2014-12-22 00:27:00,40.4,39.1,30.10,SSW,202,0.0,0.0,95,0.00,,---,0.00,VWS V14.00,2014-12-22 05:27:00,
2014-12-22 00:32:00,40.4,39.3,30.10,SSW,202,0.0,0.0,96,0.00,,---,0.00,VWS V14.00,2014-12-22 05:32:00,
2014-12-22 00:37:00,40.2,39.2,30.10,SSW,202,0.0,0.0,96,0.00,,---,0.00,VWS V14.00,2014-12-22 05:37:00,
2014-12-22 00:42:00,40.2,39.2,30.10,SSW,202,0.0,0.0,96,0.00,,---,0.00,VWS V14.00,2014-12-22 05:42:00,
2014-12-22 00:47:00,40.2,39.2,30.10,SSW,202,0.0,0.0,96,0.00,,---,0.00,VWS V14.00,2014-12-22 05:47:00,
2014-12-22 00:52:00,40.1,39.0,30.10,SSW,202,0.0,0.0,96,0.00,,---,0.00,VWS V14.00,2014-12-22 05:52:00,
2014-12-22 00:57:00,40.1,39.0,30.09,SSW,202,0.0,0.0,96,0.00,,---,0.00,VWS V14.00,2014-12-22 05:57:00,
2014-12-22 01:02:00,40.1,39.0,30.10,SSW,202,0.0,0.0,96,0.00,,---,0.00,VWS V14.00,2014-12-22 06:02:00,
2014-12-22 01:07:00,39.9,38.8,30.10,SSW,202,0.0,0.0,96,0.00,,---,0.00,VWS V14.00,2014-12-22 06:07:00,
2014-12-22 01:12:00,39.9,38.8,30.10,SSW,202,0.0,0.0,96,0.00,,---,0.00,VWS V14.00,2014-12-22 06:12:00,
2014-12-22 01:17:00,39.9,38.8,30.09,SSW,202,0.0,0.0,96,0.00,,---,0.00,VWS V14.00,2014-12-22 06:17:00,
2014-12-22 01:22:00,39.9,38.8,30.08,SSW,202,0.0,0.0,96,0.00,,---,0.00,VWS V14.00,2014-12-22 06:22:00,
2014-12-22 01:27:00,39.9,39.1,30.09,SSW,202,0.0,0.0,97,0.00,,---,0.00,VWS V14.00,2014-12-22 06:27:00,
2014-12-22 01:32:00,39.7,38.9,30.08,SSW,202,0.0,0.0,97,0.00,,---,0.00,VWS V14.00,2014-12-22 06:32:00,
2014-12-22 01:37:00,39.7,38.9,30.08,SSW,202,0.0,0.0,97,0.00,,---,0.00,VWS V14.00,2014-12-22 06:37:00,
2014-12-22 01:42:00,39.7,38.9,30.08,SSW,202,0.0,0.0,97,0.00,,---,0.00,VWS V14.00,2014-12-22 06:42:00,
2014-12-22 01:47:00,39.7,38.9,30.08,SSW,202,0.0,0.0,97,0.00,,---,0.00,VWS V14.00,2014-12-22 06:47:00,
2014-12-22 01:52:00,39.7,38.9,30.08,SSW,202,0.0,0.0,97,0.00,,---,0.00,VWS V14.00,2014-12-22 06:52:00,
2014-12-22 01:57:00,39.7,38.9,30.07,SSW,202,0.0,0.0,97,0.00,,---,0.00,VWS V14.00,2014-12-22 06:57:00,
2014-12-22 02:02:00,39.7,38.9,30.08,SSW,202,0.0,0.0,97,0.00,,---,0.00,VWS V14.00,2014-12-22 07:02:00,
2014-12-22 02:07:00,39.7,38.9,30.08,SSW,202,0.0,0.0,97,0.00,,---,0.00,VWS V14.00,2014-12-22 07:07:00,
2014-12-22 02:12:00,39.5,39.0,30.08,SSW,202,0.0,0.0,98,0.00,,---,0.00,VWS V14.00,2014-12-22 07:12:00,
2014-12-22 02:17:00,39.5,39.0,30.08,SSW,202,0.0,0.0,98,0.00,,---,0.00,VWS V14.00,2014-12-22 07:17:00,
2014-12-22 02:22:00,39.5,39.0,30.07,SSW,202,0.0,0.0,98,0.00,,---,0.00,VWS V14.00,2014-12-22 07:22:00,
2014-12-22 02:27:00,39.5,39.0,30.08,SSW,202,0.0,0.0,98,0.00,,---,0.00,VWS V14.00,2014-12-22 07:27:00,
2014-12-22 02:32:00,39.5,39.0,30.08,SSW,202,0.0,0.0,98,0.00,,---,0.00,VWS V14.00,2014-12-22 07:32:00,
2014-12-22 02:37:00,39.5,39.0,30.07,SSW,202,0.0,0.0,98,0.00,,---,0.00,VWS V14.00,2014-12-22 07:37:00,
2014-12-22 02:42:00,39.5,39.0,30.07,SSW,202,0.0,0.0,98,0.00,,---,0.00,VWS V14.00,2014-12-22 07:42:00,
2014-12-22 02:47:00,39.5,39.0,30.07,SSW,202,0.0,0.0,98,0.00,,---,0.00,VWS V14.00,2014-12-22 07:47:00,
2014-12-22 02:52:00,39.5,39.0,30.06,SSW,202,0.0,0.0,98,0.00,,---,0.00,VWS V14.00,2014-12-22 07:52:00,
2014-12-22 02:57:00,39.5,39.0,30.07,SSW,202,0.0,0.0,98,0.00,,---,0.00,VWS V14.00,2014-12-22 07:57:00,
2014-12-22 03:02:00,39.3,38.8,30.06,SSW,202,0.0,0.0,98,0.00,,---,0.00,VWS V14.00,2014-12-22 08:02:00,
2014-12-22 03:07:00,39.5,39.0,30.07,SSW,202,0.0,0.0,98,0.00,,---,0.00,VWS V14.00,2014-12-22 08:07:00,
2014-12-22 03:12:00,39.5,39.0,30.06,SSW,202,0.0,0.0,98,0.00,,---,0.00,VWS V14.00,2014-12-22 08:12:00,
2014-12-22 03:17:00,39.5,39.0,30.06,SSW,202,0.0,0.0,98,0.00,,---,0.00,VWS V14.00,2014-12-22 08:17:00,
2014-12-22 03:22:00,39.5,39.0,30.05,SSW,202,0.0,0.0,98,0.00,,---,0.00,VWS V14.00,2014-12-22 08:22:00,
2014-12-22 03:27:00,39.3,38.8,30.05,SSW,202,0.0,0.0,98,0.00,,---,0.00,VWS V14.00,2014-12-22 08:27:00,
2014-12-22 03:32:00,39.3,38.8,30.05,SSW,202,0.0,0.0,98,0.00,,---,0.00,VWS V14.00,2014-12-22 08:32:00,
2014-12-22 03:37:00,39.3,38.8,30.05,SSW,202,0.0,0.0,98,0.00,,---,0.00,VWS V14.00,2014-12-22 08:37:00,
2014-12-22 03:43:00,39.3,38.8,30.05,SSW,202,0.0,0.0,98,0.00,,---,0.00,VWS V14.00,2014-12-22 08:43:00,
2014-12-22 03:48:00,39.3,38.8,30.05,SSW,202,0.0,0.0,98,0.00,,---,0.00,VWS V14.00,2014-12-22 08:48:00,
2014-12-22 03:53:00,39.3,38.8,30.04,SSW,202,0.0,0.0,98,0.00,,---,0.00,VWS V14.00,2014-12-22 08:53:00,
2014-12-22 03:58:00,39.3,38.8,30.04,SSW,202,0.0,0.0,98,0.00,,---,0.00,VWS V14.00,2014-12-22 08:58:00,
2014-12-22 04:03:00,39.3,38.8,30.03,SSW,202,0.0,0.0,98,0.00,,---,0.00,VWS V14.00,2014-12-22 09:03:00,
2014-12-22 04:08:00,39.3,38.8,30.03,SSW,202,0.0,0.0,98,0.00,,---,0.00,VWS V14.00,2014-12-22 09:08:00,
2014-12-22 04:13:00,39.3,38.8,30.03,SSW,202,0.0,0.0,98,0.00,,---,0.00,VWS V14.00,2014-12-22 09:13:00,
2014-12-22 04:18:00,39.3,38.8,30.03,SSW,202,0.0,0.0,98,0.00,,---,0.00,VWS V14.00,2014-12-22 09:18:00,
2014-12-22 04:23:00,39.3,38.8,30.03,SSW,202,0.0,0.0,98,0.00,,---,0.00,VWS V14.00,2014-12-22 09:23:00,
2014-12-22 04:28:00,39.3,39.0,30.03,SSW,202,0.0,0.0,99,0.00,,---,0.00,VWS V14.00,2014-12-22 09:28:00,
2014-12-22 04:33:00,39.3,39.0,30.03,SSW,202,0.0,0.0,99,0.00,,---,0.00,VWS V14.00,2014-12-22 09:33:00,
2014-12-22 04:38:00,39.3,39.0,30.03,SSW,202,0.0,0.0,99,0.00,,---,0.00,VWS V14.00,2014-12-22 09:38:00,
2014-12-22 04:43:00,39.3,39.0,30.03,SSW,202,0.0,0.0,99,0.00,,---,0.00,VWS V14.00,2014-12-22 09:43:00,
2014-12-22 04:48:00,39.3,39.0,30.03,SSW,202,0.0,0.0,99,0.00,,---,0.00,VWS V14.00,2014-12-22 09:48:00,
2014-12-22 04:53:00,39.3,39.0,30.03,SSW,202,0.0,0.0,99,0.00,,---,0.00,VWS V14.00,2014-12-22 09:53:00,
2014-12-22 04:58:00,39.3,39.0,30.03,SSW,202,0.0,0.0,99,0.00,,---,0.00,VWS V14.00,2014-12-22 09:58:00,
2014-12-22 05:03:00,39.3,39.0,30.03,SSW,202,0.0,0.0,99,0.00,,---,0.00,VWS V14.00,2014-12-22 10:03:00,
2014-12-22 05:08:00,39.3,39.0,30.03,SSW,202,0.0,0.0,99,0.02,,---,0.02,VWS V14.00,2014-12-22 10:08:00,
2014-12-22 05:13:00,39.3,39.0,30.03,SSW,202,0.0,0.0,99,0.02,,---,0.02,VWS V14.00,2014-12-22 10:13:00,
2014-12-22 05:18:00,39.3,39.0,30.03,SSW,202,0.0,0.0,99,0.02,,---,0.02,VWS V14.00,2014-12-22 10:18:00,
2014-12-22 05:23:00,39.3,39.0,30.03,SSW,202,0.0,0.0,99,0.02,,---,0.02,VWS V14.00,2014-12-22 10:23:00,
2014-12-22 05:28:00,39.3,39.0,30.03,SSW,202,0.0,0.0,99,0.02,,---,0.02,VWS V14.00,2014-12-22 10:28:00,
2014-12-22 05:33:00,39.3,39.0,30.03,SSW,202,0.0,0.0,99,0.02,,---,0.02,VWS V14.00,2014-12-22 10:33:00,
2014-12-22 05:38:00,39.3,39.0,30.03,SSW,202,0.0,0.0,99,0.02,,---,0.02,VWS V14.00,2014-12-22 10:38:00,
2014-12-22 05:43:00,39.3,39.0,30.03,SSW,202,0.0,0.0,99,0.02,,---,0.02,VWS V14.00,2014-12-22 10:43:00,
2014-12-22 05:48:00,39.3,39.0,30.03,SSW,202,0.0,0.0,99,0.02,,---,0.02,VWS V14.00,2014-12-22 10:48:00,
2014-12-22 05:53:00,39.2,38.9,30.03,SSW,202,0.0,0.0,99,0.02,,---,0.02,VWS V14.00,2014-12-22 10:53:00,
2014-12-22 05:58:00,39.2,38.9,30.03,SSW,202,0.0,0.0,99,0.02,,---,0.02,VWS V14.00,2014-12-22 10:58:00,
2014-12-22 06:03:00,39.2,38.9,30.03,SSW,202,0.0,0.0,99,0.02,,---,0.02,VWS V14.00,2014-12-22 11:03:00,
2014-12-22 06:08:00,39.2,38.9,30.04,SSW,202,0.0,0.0,99,0.02,,---,0.02,VWS V14.00,2014-12-22 11:08:00,
2014-12-22 06:13:00,39.3,39.0,30.04,SSW,202,0.0,0.0,99,0.00,,---,0.02,VWS V14.00,2014-12-22 11:13:00,
2014-12-22 06:18:00,39.2,38.9,30.03,SSW,202,0.0,0.0,99,0.00,,---,0.02,VWS V14.00,2014-12-22 11:18:00,
2014-12-22 06:23:00,39.3,39.0,30.03,SSW,202,0.0,0.0,99,0.00,,---,0.02,VWS V14.00,2014-12-22 11:23:00,
2014-12-22 06:28:00,39.3,39.3,30.03,SSW,202,0.0,0.0,100,0.00,,---,0.02,VWS V14.00,2014-12-22 11:28:00,
2014-12-22 06:33:00,39.3,39.3,30.03,SSW,202,0.0,0.0,100,0.00,,---,0.02,VWS V14.00,2014-12-22 11:33:00,
2014-12-22 06:38:00,39.3,39.3,30.03,SSW,202,0.0,0.0,100,0.00,,---,0.02,VWS V14.00,2014-12-22 11:38:00,
2014-12-22 06:43:00,39.3,39.3,30.03,SSW,202,0.0,0.0,100,0.00,,---,0.02,VWS V14.00,2014-12-22 11:43:00,
2014-12-22 06:48:00,39.2,39.2,30.03,SSW,202,0.0,0.0,100,0.00,,---,0.02,VWS V14.00,2014-12-22 11:48:00,
2014-12-22 06:53:00,39.3,39.3,30.03,SSW,202,0.0,0.0,100,0.00,,---,0.02,VWS V14.00,2014-12-22 11:53:00,
2014-12-22 06:58:00,39.3,39.3,30.03,SSW,202,0.0,0.0,100,0.00,,---,0.02,VWS V14.00,2014-12-22 11:58:00,
2014-12-22 07:03:00,39.2,39.2,30.03,SSW,202,0.0,0.0,100,0.00,,---,0.02,VWS V14.00,2014-12-22 12:03:00,
2014-12-22 07:08:00,39.2,39.2,30.03,SSW,202,0.0,0.0,100,0.00,,---,0.02,VWS V14.00,2014-12-22 12:08:00,
2014-12-22 07:13:00,39.0,39.0,30.03,SSW,202,0.0,0.0,100,0.00,,---,0.02,VWS V14.00,2014-12-22 12:13:00,
2014-12-22 07:18:00,39.0,39.0,30.03,SSW,202,0.0,0.0,100,0.00,,---,0.02,VWS V14.00,2014-12-22 12:18:00,
2014-12-22 07:23:00,39.0,39.0,30.03,SSW,202,0.0,0.0,100,0.00,,---,0.02,VWS V14.00,2014-12-22 12:23:00,
2014-12-22 07:28:00,39.0,39.0,30.03,SSW,202,0.0,0.0,100,0.00,,---,0.02,VWS V14.00,2014-12-22 12:28:00,
2014-12-22 07:34:00,39.0,39.0,30.03,SSW,202,0.0,0.0,100,0.00,,---,0.02,VWS V14.00,2014-12-22 12:34:00,
2014-12-22 07:39:00,39.0,39.0,30.04,SSW,202,0.0,0.0,100,0.00,,---,0.02,VWS V14.00,2014-12-22 12:39:00,
2014-12-22 07:44:00,39.0,39.0,30.04,SSW,202,0.0,0.0,100,0.00,,---,0.02,VWS V14.00,2014-12-22 12:44:00,
2014-12-22 07:49:00,39.0,39.0,30.05,SSW,202,0.0,0.0,100,0.00,,---,0.02,VWS V14.00,2014-12-22 12:49:00,
2014-12-22 07:54:00,39.0,39.0,30.05,SSW,202,0.0,0.0,100,0.00,,---,0.02,VWS V14.00,2014-12-22 12:54:00,
2014-12-22 07:59:00,39.0,39.0,30.05,SSW,202,0.0,0.0,100,0.00,,---,0.02,VWS V14.00,2014-12-22 12:59:00,
2014-12-22 08:04:00,39.0,39.0,30.04,SSW,202,0.0,0.0,100,0.00,,---,0.02,VWS V14.00,2014-12-22 13:04:00,
2014-12-22 08:09:00,39.2,39.2,30.05,SSW,202,0.0,0.0,100,0.00,,---,0.02,VWS V14.00,2014-12-22 13:09:00,
2014-12-22 08:14:00,39.2,39.2,30.06,SSW,202,0.0,0.0,100,0.00,,---,0.02,VWS V14.00,2014-12-22 13:14:00,
2014-12-22 08:19:00,39.3,39.3,30.06,SSW,202,0.0,0.0,100,0.02,,---,0.04,VWS V14.00,2014-12-22 13:19:00,
2014-12-22 08:24:00,39.3,39.3,30.06,SSW,202,0.0,0.0,100,0.02,,---,0.04,VWS V14.00,2014-12-22 13:24:00,
2014-12-22 08:29:00,39.3,39.3,30.06,SSW,202,0.0,0.0,100,0.02,,---,0.04,VWS V14.00,2014-12-22 13:29:00,
2014-12-22 08:34:00,39.3,39.3,30.06,SSW,202,0.0,0.0,100,0.02,,---,0.04,VWS V14.00,2014-12-22 13:34:00,
2014-12-22 08:39:00,39.5,39.5,30.06,SSW,202,0.0,0.0,100,0.02,,---,0.04,VWS V14.00,2014-12-22 13:39:00,
2014-12-22 08:44:00,39.5,39.5,30.05,SSW,202,0.0,0.0,100,0.02,,---,0.04,VWS V14.00,2014-12-22 13:44:00,
2014-12-22 08:49:00,39.7,39.7,30.05,SSW,202,0.0,0.0,100,0.02,,---,0.04,VWS V14.00,2014-12-22 13:49:00,
2014-12-22 08:54:00,39.7,39.7,30.05,SSW,202,0.0,0.0,100,0.02,,---,0.04,VWS V14.00,2014-12-22 13:54:00,
2014-12-22 08:59:00,39.7,39.7,30.05,SSW,202,0.0,0.0,100,0.02,,---,0.04,VWS V14.00,2014-12-22 13:59:00,
2014-12-22 09:04:00,39.9,39.9,30.05,SSW,202,0.0,0.0,100,0.02,,---,0.04,VWS V14.00,2014-12-22 14:04:00,
2014-12-22 09:09:00,39.9,39.9,30.06,SSW,202,0.0,0.0,100,0.02,,---,0.04,VWS V14.00,2014-12-22 14:09:00,
2014-12-22 09:14:00,39.9,39.9,30.05,SSW,202,0.0,0.0,100,0.02,,---,0.04,VWS V14.00,2014-12-22 14:14:00,
2014-12-22 09:19:00,39.9,39.9,30.05,SSW,202,0.0,0.0,100,0.02,,---,0.04,VWS V14.00,2014-12-22 14:19:00,
2014-12-22 09:24:00,39.9,39.9,30.05,SSW,202,0.0,0.0,100,0.00,,---,0.04,VWS V14.00,2014-12-22 14:24:00,
2014-12-22 09:29:00,39.9,39.9,30.05,SSW,202,0.0,0.0,100,0.00,,---,0.04,VWS V14.00,2014-12-22 14:29:00,
2014-12-22 09:34:00,40.2,40.2,30.05,SSW,202,0.0,0.0,100,0.02,,---,0.06,VWS V14.00,2014-12-22 14:34:00,
2014-12-22 09:39:00,40.2,40.2,30.05,SSW,202,0.0,0.0,100,0.02,,---,0.06,VWS V14.00,2014-12-22 14:39:00,
2014-12-22 09:44:00,40.2,40.2,30.06,SSW,202,0.0,0.0,100,0.02,,---,0.06,VWS V14.00,2014-12-22 14:44:00,
2014-12-22 09:49:00,40.2,40.2,30.06,SSW,202,0.0,0.0,100,0.02,,---,0.06,VWS V14.00,2014-12-22 14:49:00,
2014-12-22 09:54:00,40.2,40.2,30.06,SSW,202,0.0,0.0,100,0.02,,---,0.06,VWS V14.00,2014-12-22 14:54:00,
2014-12-22 09:59:00,40.2,40.2,30.06,SSW,202,0.0,0.0,100,0.02,,---,0.06,VWS V14.00,2014-12-22 14:59:00,
2014-12-22 10:04:00,40.4,40.4,30.06,SSW,202,0.0,0.0,100,0.02,,---,0.06,VWS V14.00,2014-12-22 15:04:00,
2014-12-22 10:09:00,40.4,40.4,30.05,SSW,202,0.0,0.0,100,0.02,,---,0.06,VWS V14.00,2014-12-22 15:09:00,
2014-12-22 10:14:00,40.4,40.4,30.06,SSW,202,0.0,0.0,100,0.02,,---,0.06,VWS V14.00,2014-12-22 15:14:00,
2014-12-22 10:19:00,40.4,40.4,30.06,SSW,202,0.0,0.0,100,0.02,,---,0.06,VWS V14.00,2014-12-22 15:19:00,
2014-12-22 10:24:00,40.6,40.6,30.05,SSW,202,0.0,0.0,100,0.02,,---,0.06,VWS V14.00,2014-12-22 15:24:00,
2014-12-22 10:29:00,40.8,40.8,30.06,SSW,202,0.0,0.0,100,0.02,,---,0.06,VWS V14.00,2014-12-22 15:29:00,
2014-12-22 10:34:00,40.8,40.8,30.05,SSW,202,0.0,0.0,100,0.02,,---,0.06,VWS V14.00,2014-12-22 15:34:00,
2014-12-22 10:39:00,40.8,40.8,30.05,SSW,202,0.0,0.0,100,0.02,,---,0.06,VWS V14.00,2014-12-22 15:39:00,
2014-12-22 10:44:00,41.0,41.0,30.05,SSW,202,0.0,0.0,100,0.00,,---,0.06,VWS V14.00,2014-12-22 15:44:00,
2014-12-22 10:49:00,41.1,41.1,30.05,SSW,202,0.0,0.0,100,0.00,,---,0.06,VWS V14.00,2014-12-22 15:49:00,
2014-12-22 10:54:00,41.0,41.0,30.05,SSW,202,0.0,0.0,100,0.00,,---,0.06,VWS V14.00,2014-12-22 15:54:00,
2014-12-22 10:59:00,41.0,41.0,30.04,SSW,202,0.0,0.0,100,0.00,,---,0.06,VWS V14.00,2014-12-22 15:59:00,
2014-12-22 11:04:00,41.1,41.1,30.05,SSW,202,0.0,0.0,100,0.00,,---,0.06,VWS V14.00,2014-12-22 16:04:00,
2014-12-22 11:09:00,41.1,41.1,30.04,SSW,202,0.0,0.0,100,0.00,,---,0.06,VWS V14.00,2014-12-22 16:09:00,
2014-12-22 11:14:00,41.5,41.5,30.03,SSW,202,0.0,0.0,100,0.00,,---,0.06,VWS V14.00,2014-12-22 16:14:00,
2014-12-22 11:20:00,41.7,41.7,30.03,SSW,202,0.0,0.0,100,0.00,,---,0.06,VWS V14.00,2014-12-22 16:20:00,
2014-12-22 11:25:00,41.9,41.9,30.03,SSW,202,0.0,0.0,100,0.00,,---,0.06,VWS V14.00,2014-12-22 16:25:00,
2014-12-22 11:30:00,42.0,42.0,30.02,SSW,202,0.0,0.0,100,0.00,,---,0.06,VWS V14.00,2014-12-22 16:30:00,
2014-12-22 11:35:00,42.0,42.0,30.01,SSW,202,0.0,0.0,100,0.00,,---,0.06,VWS V14.00,2014-12-22 16:35:00,
2014-12-22 11:40:00,42.0,41.7,30.00,SSW,202,0.0,0.0,99,0.00,,---,0.06,VWS V14.00,2014-12-22 16:40:00,
2014-12-22 11:45:00,42.0,41.7,30.01,SSW,202,0.0,0.0,99,0.00,,---,0.06,VWS V14.00,2014-12-22 16:45:00,
2014-12-22 11:50:00,42.0,41.7,30.01,SSW,202,0.0,0.0,99,0.00,,---,0.06,VWS V14.00,2014-12-22 16:50:00,
2014-12-22 11:55:00,41.9,41.6,30.00,SSW,202,0.0,0.0,99,0.00,,---,0.06,VWS V14.00,2014-12-22 16:55:00,
2014-12-22 12:00:00,41.9,41.6,30.00,SSW,202,0.0,0.0,99,0.00,,---,0.06,VWS V14.00,2014-12-22 17:00:00,
2014-12-22 12:05:00,42.0,41.7,30.00,SSW,202,0.0,0.0,99,0.00,,---,0.06,VWS V14.00,2014-12-22 17:05:00,
2014-12-22 12:10:00,42.0,41.7,29.99,SSW,202,0.0,0.0,99,0.00,,---,0.06,VWS V14.00,2014-12-22 17:10:00,
2014-12-22 12:15:00,42.0,41.7,29.99,SSW,202,0.0,0.0,99,0.00,,---,0.06,VWS V14.00,2014-12-22 17:15:00,
2014-12-22 12:20:00,42.0,41.7,29.99,SSW,202,0.0,0.0,99,0.00,,---,0.06,VWS V14.00,2014-12-22 17:20:00,
2014-12-22 12:25:00,42.0,41.7,29.99,SSW,202,0.0,0.0,99,0.00,,---,0.06,VWS V14.00,2014-12-22 17:25:00,
2014-12-22 12:30:00,42.0,41.7,29.99,SSW,202,0.0,0.0,99,0.00,,---,0.06,VWS V14.00,2014-12-22 17:30:00,
2014-12-22 12:35:00,42.0,41.7,29.99,SSW,202,0.0,0.0,99,0.00,,---,0.06,VWS V14.00,2014-12-22 17:35:00,
2014-12-22 12:40:00,42.2,41.9,29.98,SSW,202,0.0,0.0,99,0.00,,---,0.06,VWS V14.00,2014-12-22 17:40:00,
2014-12-22 12:45:00,42.4,42.4,29.98,SSW,202,0.0,0.0,100,0.00,,---,0.06,VWS V14.00,2014-12-22 17:45:00,
2014-12-22 12:50:00,42.6,42.6,29.98,SSW,202,0.0,0.0,100,0.00,,---,0.06,VWS V14.00,2014-12-22 17:50:00,
2014-12-22 12:55:00,42.6,42.6,29.98,SSW,202,0.0,0.0,100,0.00,,---,0.06,VWS V14.00,2014-12-22 17:55:00,
2014-12-22 13:00:00,42.6,42.6,29.98,SSW,202,0.0,0.0,100,0.00,,---,0.06,VWS V14.00,2014-12-22 18:00:00,
2014-12-22 13:05:00,42.6,42.6,29.98,SSW,202,0.0,0.0,100,0.00,,---,0.06,VWS V14.00,2014-12-22 18:05:00,
2014-12-22 13:10:00,42.6,42.6,29.97,SSW,202,0.0,0.0,100,0.00,,---,0.06,VWS V14.00,2014-12-22 18:10:00,
2014-12-22 13:15:00,42.9,42.9,29.97,SSW,202,0.0,0.0,100,0.00,,---,0.06,VWS V14.00,2014-12-22 18:15:00,
2014-12-22 13:20:00,43.1,43.1,29.97,SSW,202,0.0,0.0,100,0.00,,---,0.06,VWS V14.00,2014-12-22 18:20:00,
2014-12-22 13:25:00,43.1,43.1,29.97,SSW,202,0.0,0.0,100,0.00,,---,0.06,VWS V14.00,2014-12-22 18:25:00,
2014-12-22 13:30:00,43.3,43.3,29.97,SSW,202,0.0,0.0,100,0.00,,---,0.06,VWS V14.00,2014-12-22 18:30:00,
2014-12-22 13:35:00,43.3,43.0,29.96,SSW,202,0.0,0.0,99,0.00,,---,0.06,VWS V14.00,2014-12-22 18:35:00,
2014-12-22 13:40:00,43.3,43.0,29.96,SSW,202,0.0,0.0,99,0.00,,---,0.06,VWS V14.00,2014-12-22 18:40:00,
2014-12-22 13:45:00,43.3,43.0,29.95,SSW,202,0.0,0.0,99,0.00,,---,0.06,VWS V14.00,2014-12-22 18:45:00,
2014-12-22 13:50:00,43.3,43.0,29.95,SSW,202,0.0,0.0,99,0.00,,---,0.06,VWS V14.00,2014-12-22 18:50:00,
2014-12-22 13:55:00,43.1,42.8,29.95,SSW,202,0.0,0.0,99,0.00,,---,0.06,VWS V14.00,2014-12-22 18:55:00,
2014-12-22 14:00:00,43.3,43.0,29.95,SSW,202,0.0,0.0,99,0.00,,---,0.06,VWS V14.00,2014-12-22 19:00:00,
2014-12-22 14:05:00,43.3,43.0,29.95,SSW,202,0.0,0.0,99,0.00,,---,0.06,VWS V14.00,2014-12-22 19:05:00,
2014-12-22 14:10:00,43.3,43.0,29.95,SSW,202,0.0,0.0,99,0.00,,---,0.06,VWS V14.00,2014-12-22 19:10:00,
2014-12-22 14:15:00,43.3,43.0,29.95,SSW,202,0.0,0.0,99,0.00,,---,0.06,VWS V14.00,2014-12-22 19:15:00,
2014-12-22 14:20:00,43.5,43.2,29.94,SSW,202,0.0,0.0,99,0.00,,---,0.06,VWS V14.00,2014-12-22 19:20:00,
2014-12-22 14:25:00,43.5,43.2,29.93,SSW,202,0.0,0.0,99,0.00,,---,0.06,VWS V14.00,2014-12-22 19:25:00,
2014-12-22 14:30:00,43.5,43.2,29.94,SSW,202,0.0,0.0,99,0.00,,---,0.06,VWS V14.00,2014-12-22 19:30:00,
2014-12-22 14:35:00,43.7,43.2,29.94,SSW,202,0.0,0.0,98,0.00,,---,0.06,VWS V14.00,2014-12-22 19:35:00,
2014-12-22 14:40:00,43.5,43.0,29.94,SSW,202,0.0,0.0,98,0.00,,---,0.06,VWS V14.00,2014-12-22 19:40:00,
2014-12-22 14:45:00,43.5,43.0,29.94,SSW,202,0.0,0.0,98,0.00,,---,0.06,VWS V14.00,2014-12-22 19:45:00,
2014-12-22 14:50:00,43.5,43.0,29.94,SSW,202,0.0,0.0,98,0.00,,---,0.06,VWS V14.00,2014-12-22 19:50:00,
2014-12-22 14:55:00,43.3,42.8,29.94,SSW,202,0.0,0.0,98,0.00,,---,0.06,VWS V14.00,2014-12-22 19:55:00,
2014-12-22 15:00:00,43.3,42.8,29.93,SSW,202,0.0,0.0,98,0.00,,---,0.06,VWS V14.00,2014-12-22 20:00:00,
2014-12-22 15:05:00,43.3,42.8,29.94,SSW,202,0.0,0.0,98,0.00,,---,0.06,VWS V14.00,2014-12-22 20:05:00,